createdAt,value
2023-01-23T00:01:36.206Z,103668.66
2023-01-23T00:04:06.251Z,103662.16
2023-01-23T00:06:34.204Z,103663.41
2023-01-23T00:09:02.308Z,103667.28
2023-01-23T00:11:32.180Z,103671.97
2023-01-23T00:14:01.693Z,103668.88
2023-01-23T00:16:32.543Z,103663.59
2023-01-23T00:19:00.727Z,103661.13
2023-01-23T00:21:31.275Z,103662.59
2023-01-23T00:24:01.497Z,103653.81
2023-01-23T00:26:32.761Z,103666.47
2023-01-23T00:29:00.905Z,103660.16
2023-01-23T00:31:30.885Z,103667.44
2023-01-23T00:34:01.710Z,103659.97
2023-01-23T00:36:32.841Z,103652.72
2023-01-23T00:39:01.212Z,103645.53
2023-01-23T00:41:29.260Z,103643.56
2023-01-23T00:43:57.443Z,103645.34
2023-01-23T00:46:25.672Z,103644.38
2023-01-23T00:48:53.629Z,103642.38
2023-01-23T00:51:22.123Z,103643.41
2023-01-23T00:53:51.570Z,103649.72
2023-01-23T00:56:19.605Z,103645.03
2023-01-23T00:58:48.524Z,103648.69
2023-01-23T01:01:17.492Z,103648.91
2023-01-23T01:03:46.443Z,103636.19
2023-01-23T01:06:16.458Z,103639.78
2023-01-23T01:08:44.546Z,103632.88
2023-01-23T01:11:14.264Z,103638.28
2023-01-23T01:13:43.079Z,103635.63
2023-01-23T01:16:11.498Z,103636.53
2023-01-23T01:18:40.239Z,103644.66
2023-01-23T01:21:09.639Z,103640.06
2023-01-23T01:23:38.555Z,103648.25
2023-01-23T01:26:08.139Z,103653.94
2023-01-23T01:28:39.370Z,103653.81
2023-01-23T01:31:09.689Z,103654.69
2023-01-23T01:33:38.494Z,103658.41
2023-01-23T01:36:10.190Z,103663.84
2023-01-23T01:38:38.570Z,103656.59
2023-01-23T01:41:07.456Z,103657.59
2023-01-23T01:43:37.572Z,103658.47
2023-01-23T01:46:16.982Z,103660.31
2023-01-23T01:48:49.330Z,103668.50
2023-01-23T01:51:22.661Z,103674.72
2023-01-23T01:53:54.966Z,103672.97
2023-01-23T01:56:23.762Z,103668.28
2023-01-23T01:58:54.724Z,103669.31
2023-01-23T02:01:22.777Z,103674.38
2023-01-23T02:03:52.766Z,103674.22
2023-01-23T02:06:21.142Z,103674.09
2023-01-23T02:08:57.027Z,103680.53
2023-01-23T02:11:25.409Z,103680.28
2023-01-23T02:13:56.746Z,103682.94
2023-01-23T02:16:29.196Z,103687.56
2023-01-23T02:19:01.915Z,103691.88
2023-01-23T02:21:30.322Z,103685.38
2023-01-23T02:24:12.996Z,103687.19
2023-01-23T02:26:44.366Z,103684.63
2023-01-23T02:29:14.812Z,103685.59
2023-01-23T02:31:53.075Z,103681.91
2023-01-23T02:34:22.806Z,103682.91
2023-01-23T02:36:51.945Z,103687.13
2023-01-23T02:39:21.625Z,103688.03
2023-01-23T02:41:56.152Z,103693.59
2023-01-23T02:44:35.265Z,103707.88
2023-01-23T02:47:11.745Z,103707.13
2023-01-23T02:49:39.906Z,103705.34
2023-01-23T02:52:09.735Z,103706.44
2023-01-23T02:54:39.641Z,103709.00
2023-01-23T02:57:09.962Z,103711.72
2023-01-23T02:59:57.311Z,103716.34
2023-01-23T03:02:27.043Z,103709.00
2023-01-23T03:04:55.236Z,103718.00
2023-01-23T03:07:23.511Z,103721.81
2023-01-23T03:09:52.089Z,103719.19
2023-01-23T03:12:21.966Z,103719.25
2023-01-23T03:14:54.324Z,103712.16
2023-01-23T03:17:23.207Z,103710.31
2023-01-23T03:19:51.170Z,103711.22
2023-01-23T03:22:19.155Z,103704.81
2023-01-23T03:24:47.298Z,103707.47
2023-01-23T03:27:15.236Z,103703.00
2023-01-23T03:30:06.580Z,103701.16
2023-01-23T03:32:34.774Z,103713.09
2023-01-23T03:35:03.198Z,103711.22
2023-01-23T03:37:31.290Z,103718.22
2023-01-23T03:40:17.759Z,103715.59
2023-01-23T03:42:45.911Z,103715.50
2023-01-23T03:45:18.971Z,103709.44
2023-01-23T03:47:47.294Z,103720.13
2023-01-23T03:50:16.642Z,103718.34
2023-01-23T03:52:45.906Z,103722.03
2023-01-23T03:55:15.494Z,103727.38
2023-01-23T03:57:45.145Z,103724.50
2023-01-23T04:00:21.359Z,103724.59
2023-01-23T04:02:56.980Z,103725.53
2023-01-23T04:05:25.065Z,103725.41
2023-01-23T04:07:53.020Z,103730.56
2023-01-23T04:10:21.690Z,103727.69
2023-01-23T04:12:54.860Z,103728.59
2023-01-23T04:15:24.881Z,103731.28
2023-01-23T04:17:57.225Z,103723.03
2023-01-23T04:20:27.060Z,103732.88
2023-01-23T04:22:56.852Z,103728.34
2023-01-23T04:25:25.319Z,103723.72
2023-01-23T04:27:53.878Z,103727.31
2023-01-23T04:30:22.572Z,103725.53
2023-01-23T04:32:52.336Z,103735.44
2023-01-23T04:35:21.422Z,103734.41
2023-01-23T04:37:49.408Z,103736.09
2023-01-23T04:40:20.073Z,103738.16
2023-01-23T04:42:55.240Z,103741.75
2023-01-23T04:45:35.780Z,103739.81
2023-01-23T04:48:20.216Z,103743.94
2023-01-23T04:50:49.905Z,103741.16
2023-01-23T04:53:18.252Z,103741.22
2023-01-23T04:55:49.328Z,103745.19
2023-01-23T04:58:20.248Z,103742.47
2023-01-23T05:00:49.047Z,103748.09
2023-01-23T05:03:20.183Z,103752.72
2023-01-23T05:05:49.552Z,103756.34
2023-01-23T05:08:17.610Z,103756.41
2023-01-23T05:10:52.538Z,103764.47
2023-01-23T05:13:21.894Z,103758.97
2023-01-23T05:15:50.211Z,103760.00
2023-01-23T05:18:20.566Z,103757.38
2023-01-23T05:20:49.452Z,103758.19
2023-01-23T05:23:17.474Z,103763.66
2023-01-23T05:25:52.264Z,103752.81
2023-01-23T05:28:20.927Z,103755.53
2023-01-23T05:30:53.570Z,103757.56
2023-01-23T05:33:30.299Z,103757.56
2023-01-23T05:36:00.400Z,103753.94
2023-01-23T05:38:28.903Z,103746.59
2023-01-23T05:40:57.116Z,103749.25
2023-01-23T05:43:44.413Z,103749.38
2023-01-23T05:46:37.676Z,103750.47
2023-01-23T05:49:07.261Z,103757.50
2023-01-23T05:51:35.580Z,103756.13
2023-01-23T05:54:04.589Z,103769.56
2023-01-23T05:56:34.589Z,103768.41
2023-01-23T05:59:21.280Z,103765.84
2023-01-23T06:02:15.579Z,103770.31
2023-01-23T06:05:04.185Z,103781.06
2023-01-23T06:08:01.808Z,103778.06
2023-01-23T06:10:31.076Z,103771.03
2023-01-23T06:12:59.152Z,103775.38
2023-01-23T06:15:27.127Z,103771.84
2023-01-23T06:17:56.423Z,103782.59
2023-01-23T06:20:27.883Z,103780.88
2023-01-23T06:22:55.947Z,103781.81
2023-01-23T06:25:24.931Z,103777.19
2023-01-23T06:27:55.198Z,103775.38
2023-01-23T06:30:25.403Z,103782.41
2023-01-23T06:32:53.712Z,103776.34
2023-01-23T06:35:29.977Z,103774.47
2023-01-23T06:37:58.571Z,103778.06
2023-01-23T06:40:27.125Z,103777.13
2023-01-23T06:43:13.833Z,103779.56
2023-01-23T06:45:45.373Z,103787.81
2023-01-23T06:48:14.469Z,103779.72
2023-01-23T06:50:45.497Z,103782.56
2023-01-23T06:53:15.913Z,103788.03
2023-01-23T06:55:45.939Z,103793.53
2023-01-23T06:58:16.084Z,103796.22
2023-01-23T07:00:45.919Z,103788.91
2023-01-23T07:03:32.062Z,103789.97
2023-01-23T07:06:07.091Z,103790.88
2023-01-23T07:08:35.910Z,103798.19
2023-01-23T07:11:05.001Z,103804.53
2023-01-23T07:13:33.370Z,103806.19
2023-01-23T07:16:01.827Z,103811.44
2023-01-23T07:18:30.549Z,103808.75
2023-01-23T07:20:59.312Z,103804.28
2023-01-23T07:23:28.733Z,103808.00
2023-01-23T07:26:00.649Z,103808.88
2023-01-23T07:28:28.730Z,103816.06
2023-01-23T07:30:59.179Z,103822.44
2023-01-23T07:33:27.523Z,103823.38
2023-01-23T07:35:56.584Z,103826.03
2023-01-23T07:38:25.468Z,103825.19
2023-01-23T07:41:00.175Z,103822.38
2023-01-23T07:43:28.734Z,103814.34
2023-01-23T07:45:59.824Z,103821.69
2023-01-23T07:48:28.264Z,103821.53
2023-01-23T07:50:56.817Z,103832.38
2023-01-23T07:53:24.987Z,103832.50
2023-01-23T07:55:54.863Z,103826.28
2023-01-23T07:58:23.672Z,103830.59
2023-01-23T08:00:52.221Z,103828.88
2023-01-23T08:03:21.060Z,103840.50
2023-01-23T08:05:52.592Z,103845.91
2023-01-23T08:08:21.819Z,103847.72
2023-01-23T08:10:51.064Z,103853.22
2023-01-23T08:13:28.388Z,103850.31
2023-01-23T08:16:04.344Z,103845.84
2023-01-23T08:18:33.198Z,103845.91
2023-01-23T08:21:03.191Z,103857.69
2023-01-23T08:23:32.700Z,103860.28
2023-01-23T08:26:03.370Z,103872.84
2023-01-23T08:28:33.370Z,103872.81
2023-01-23T08:31:02.932Z,103872.72
2023-01-23T08:33:33.229Z,103867.31
2023-01-23T08:36:02.271Z,103877.34
2023-01-23T08:38:31.765Z,103885.31
2023-01-23T08:41:03.361Z,103887.97
2023-01-23T08:43:34.006Z,103891.53
2023-01-23T08:46:03.152Z,103889.81
2023-01-23T08:48:33.195Z,103891.00
2023-01-23T08:51:04.112Z,103897.22
2023-01-23T08:53:32.997Z,103900.63
2023-01-23T08:56:02.272Z,103899.75
2023-01-23T08:58:32.342Z,103902.38
2023-01-23T09:01:02.058Z,103909.66
2023-01-23T09:03:30.183Z,103911.25
2023-01-23T09:06:02.457Z,103908.63
2023-01-23T09:08:30.691Z,103905.16
2023-01-23T09:11:02.649Z,103907.75
2023-01-23T09:13:32.357Z,103913.09
2023-01-23T09:16:01.158Z,103914.72
2023-01-23T09:18:30.233Z,103911.16
2023-01-23T09:21:00.051Z,103913.91
2023-01-23T09:23:28.390Z,103913.84
2023-01-23T09:26:04.762Z,103921.91
2023-01-23T09:28:34.526Z,103915.47
2023-01-23T09:31:07.448Z,103919.81
2023-01-23T09:33:35.636Z,103922.38
2023-01-23T09:36:04.444Z,103927.59
2023-01-23T09:38:34.459Z,103926.78
2023-01-23T09:41:10.337Z,103924.06
2023-01-23T09:43:46.080Z,103931.13
2023-01-23T09:46:20.233Z,103922.19
2023-01-23T09:48:52.176Z,103935.03
2023-01-23T09:51:26.817Z,103926.78
2023-01-23T09:53:59.615Z,103925.84
2023-01-23T09:56:35.388Z,103925.78
2023-01-23T09:59:14.494Z,103925.03
2023-01-23T10:01:43.210Z,103920.41
2023-01-23T10:04:13.523Z,103926.66
2023-01-23T10:07:02.484Z,103927.28
2023-01-23T10:09:43.977Z,103931.06
2023-01-23T10:12:25.609Z,103933.78
2023-01-23T10:15:09.314Z,103941.56
2023-01-23T10:17:45.366Z,103933.44
2023-01-23T10:20:45.927Z,103934.91
2023-01-23T10:23:30.656Z,103927.59
2023-01-23T10:26:00.105Z,103920.38
2023-01-23T10:28:35.011Z,103922.94
2023-01-23T10:31:11.496Z,103929.91
2023-01-23T10:33:46.771Z,103916.44
2023-01-23T10:36:24.041Z,103921.63
2023-01-23T10:38:59.811Z,103916.22
2023-01-23T10:41:28.443Z,103920.63
2023-01-23T10:43:59.781Z,103920.50
2023-01-23T10:46:35.745Z,103913.19
2023-01-23T10:49:05.375Z,103915.88
2023-01-23T10:51:48.620Z,103913.38
2023-01-23T10:54:31.697Z,103914.06
2023-01-23T10:57:03.491Z,103918.41
2023-01-23T10:59:35.892Z,103927.47
2023-01-23T11:02:22.703Z,103914.72
2023-01-23T11:04:52.969Z,103913.19
2023-01-23T11:07:24.102Z,103910.47
2023-01-23T11:09:55.778Z,103919.63
2023-01-23T11:12:25.901Z,103922.47
2023-01-23T11:15:13.669Z,103929.38
2023-01-23T11:17:44.275Z,103931.34
2023-01-23T11:20:26.061Z,103931.25
2023-01-23T11:23:06.544Z,103925.69
2023-01-23T11:25:39.173Z,103927.53
2023-01-23T11:28:23.749Z,103922.81
2023-01-23T11:31:12.327Z,103920.50
2023-01-23T11:33:52.600Z,103928.41
2023-01-23T11:36:39.642Z,103922.94
2023-01-23T11:39:20.068Z,103915.56
2023-01-23T11:41:48.882Z,103914.66
2023-01-23T11:44:21.116Z,103916.09
2023-01-23T11:47:18.049Z,103904.91
2023-01-23T11:50:13.861Z,103912.84
2023-01-23T11:52:50.608Z,103918.66
2023-01-23T11:55:35.538Z,103923.97
2023-01-23T11:58:17.334Z,103912.00
2023-01-23T12:00:50.028Z,103909.31
2023-01-23T12:04:06.185Z,103908.97
2023-01-23T12:07:03.674Z,103917.25
2023-01-23T12:09:39.474Z,103923.59
2023-01-23T12:12:21.178Z,103915.59
2023-01-23T12:15:01.482Z,103917.19
2023-01-23T12:17:40.320Z,103916.06
2023-01-23T12:20:27.187Z,103916.78
2023-01-23T12:23:16.706Z,103913.00
2023-01-23T12:25:53.355Z,103914.88
2023-01-23T12:28:40.791Z,103914.53
2023-01-23T12:31:24.702Z,103919.22
2023-01-23T12:34:10.667Z,103910.34
2023-01-23T12:37:11.752Z,103916.78
2023-01-23T12:40:00.737Z,103912.25
2023-01-23T12:42:33.387Z,103914.09
2023-01-23T12:45:14.552Z,103912.31
2023-01-23T12:47:49.678Z,103912.41
2023-01-23T12:50:22.640Z,103915.19
2023-01-23T12:52:54.107Z,103917.28
2023-01-23T12:55:27.098Z,103924.34
2023-01-23T12:58:08.009Z,103921.59
2023-01-23T13:00:47.585Z,103925.19
2023-01-23T13:03:46.030Z,103929.72
2023-01-23T13:06:30.935Z,103921.50
2023-01-23T13:09:12.952Z,103920.56
2023-01-23T13:11:59.818Z,103918.47
2023-01-23T13:15:03.511Z,103928.53
2023-01-23T13:17:37.775Z,103922.22
2023-01-23T13:20:43.001Z,103922.69
2023-01-23T13:23:31.614Z,103913.16
2023-01-23T13:26:32.842Z,103908.53
2023-01-23T13:29:07.737Z,103906.75
2023-01-23T13:31:45.261Z,103903.75
2023-01-23T13:34:43.594Z,103899.06
2023-01-23T13:37:51.229Z,103895.56
2023-01-23T13:40:26.623Z,103887.56
2023-01-23T13:42:55.550Z,103882.28
2023-01-23T13:45:29.116Z,103879.44
2023-01-23T14:24:45.057Z,103882.81
2023-01-23T14:27:28.890Z,103888.03
2023-01-23T14:29:59.545Z,103882.94
2023-01-23T14:32:31.090Z,103882.88
2023-01-23T14:35:01.575Z,103881.06
2023-01-23T14:37:31.774Z,103883.78
2023-01-23T14:40:11.641Z,103898.22
2023-01-23T14:42:41.580Z,103897.25
2023-01-23T14:45:15.352Z,103902.28
2023-01-23T14:47:48.914Z,103896.03
2023-01-23T14:50:25.777Z,103892.16
2023-01-23T14:52:59.688Z,103893.00
2023-01-23T14:55:30.476Z,103884.03
2023-01-23T14:58:02.015Z,103885.88
2023-01-23T15:00:31.554Z,103884.84
2023-01-23T15:02:59.585Z,103878.59
2023-01-23T15:05:29.581Z,103875.84
2023-01-23T15:07:59.271Z,103875.03
2023-01-23T15:10:30.122Z,103868.50
2023-01-23T15:13:02.138Z,103870.47
2023-01-23T15:15:33.521Z,103860.66
2023-01-23T15:18:03.547Z,103867.72
2023-01-23T15:20:38.449Z,103872.19
2023-01-23T15:23:28.234Z,103871.91
2023-01-23T15:26:24.706Z,103868.41
2023-01-23T15:28:55.191Z,103875.09
2023-01-23T15:31:30.264Z,103884.84
2023-01-23T15:34:18.240Z,103880.09
2023-01-23T15:36:53.675Z,103881.06
2023-01-23T15:39:24.952Z,103882.81
2023-01-23T15:41:54.291Z,103888.22
2023-01-23T15:44:26.411Z,103883.63
2023-01-23T15:46:56.693Z,103889.84
2023-01-23T15:49:26.498Z,103892.56
2023-01-23T15:51:58.378Z,103895.16
2023-01-23T15:54:33.236Z,103893.44
2023-01-23T15:57:09.299Z,103899.81
2023-01-23T15:59:38.339Z,103896.16
2023-01-23T16:02:12.850Z,103898.22
2023-01-23T16:04:43.777Z,103889.09
2023-01-23T16:07:23.965Z,103894.47
2023-01-23T16:09:55.071Z,103891.69
2023-01-23T16:12:28.733Z,103893.59
2023-01-23T16:14:56.934Z,103901.88
2023-01-23T16:17:25.338Z,103911.81
2023-01-23T16:19:54.395Z,103914.47
2023-01-23T16:22:29.362Z,103924.28
2023-01-23T16:24:58.788Z,103920.69
2023-01-23T16:27:28.501Z,103914.47
2023-01-23T16:29:57.406Z,103916.34
2023-01-23T16:32:26.081Z,103919.06
2023-01-23T16:34:54.636Z,103916.50
2023-01-23T16:37:23.060Z,103913.78
2023-01-23T16:39:52.792Z,103918.41
2023-01-23T16:42:23.669Z,103916.63
2023-01-23T16:44:52.153Z,103923.75
2023-01-23T16:47:20.277Z,103917.53
2023-01-23T16:49:53.548Z,103923.75
2023-01-23T16:52:26.910Z,103930.97
2023-01-23T16:54:56.436Z,103927.94
2023-01-23T16:57:26.582Z,103932.56
2023-01-23T16:59:56.357Z,103932.47
2023-01-23T17:02:32.173Z,103935.94
2023-01-23T17:05:00.308Z,103943.19
2023-01-23T17:07:28.232Z,103947.81
2023-01-23T17:09:58.404Z,103957.00
2023-01-23T17:12:29.552Z,103963.28
2023-01-23T17:14:58.395Z,103961.50
2023-01-23T17:17:33.299Z,103959.72
2023-01-23T17:20:02.806Z,103966.91
2023-01-23T17:22:35.854Z,103969.63
2023-01-23T17:25:07.860Z,103973.22
2023-01-23T17:27:44.557Z,103975.94
2023-01-23T17:30:18.687Z,103969.53
2023-01-23T17:32:49.830Z,103963.13
2023-01-23T17:35:23.031Z,103960.41
2023-01-23T17:37:51.221Z,103957.03
2023-01-23T17:40:22.268Z,103955.03
2023-01-23T17:42:50.919Z,103959.59
2023-01-23T17:45:22.395Z,103963.28
2023-01-23T17:47:52.388Z,103965.16
2023-01-23T17:50:23.059Z,103975.03
2023-01-23T17:52:52.736Z,103977.81
2023-01-23T17:55:25.532Z,103978.78
2023-01-23T17:57:53.709Z,103975.94
2023-01-23T18:00:22.824Z,103981.28
2023-01-23T18:02:57.204Z,103981.41
2023-01-23T18:05:27.086Z,103979.63
2023-01-23T18:07:55.734Z,103977.81
2023-01-23T18:10:29.771Z,103977.81
2023-01-23T18:13:10.161Z,103970.38
2023-01-23T18:15:44.130Z,103977.81
2023-01-23T18:18:23.925Z,103973.97
2023-01-23T18:20:54.677Z,103979.59
2023-01-23T18:23:24.130Z,103966.91
2023-01-23T18:26:02.206Z,103976.81
2023-01-23T18:28:40.707Z,103983.97
2023-01-23T18:31:14.883Z,103985.19
2023-01-23T18:34:05.944Z,103979.63
2023-01-23T18:36:46.475Z,103982.47
2023-01-23T18:39:48.607Z,103991.50
2023-01-23T18:42:23.270Z,103972.63
2023-01-23T18:44:57.043Z,103970.84
2023-01-23T18:47:25.878Z,103976.41
2023-01-23T18:49:54.663Z,103975.56
2023-01-23T18:52:28.285Z,103969.22
2023-01-23T18:55:07.118Z,103969.41
2023-01-23T18:57:51.618Z,103964.81
2023-01-23T19:00:25.099Z,103962.28
2023-01-23T19:03:02.035Z,103965.13
2023-01-23T19:05:33.558Z,103967.78
2023-01-23T19:08:03.195Z,103972.31
2023-01-23T19:10:47.934Z,103970.56
2023-01-23T19:13:22.953Z,103967.78
2023-01-23T19:16:03.062Z,103971.50
2023-01-23T19:18:44.196Z,103974.19
2023-01-23T19:21:17.022Z,103978.81
2023-01-23T19:23:51.769Z,103986.00
2023-01-23T19:26:20.461Z,103994.13
2023-01-23T19:28:51.716Z,103993.13
2023-01-23T19:31:25.030Z,103992.03
2023-01-23T19:33:53.684Z,103991.28
2023-01-23T19:36:22.878Z,103991.22
2023-01-23T19:38:52.624Z,103990.34
2023-01-23T19:41:22.628Z,103994.81
2023-01-23T19:43:53.596Z,103996.63
2023-01-23T19:46:24.527Z,103997.50
2023-01-23T19:48:53.122Z,104003.78
2023-01-23T19:51:24.255Z,104003.63
2023-01-23T19:53:54.675Z,103987.50
2023-01-23T19:56:26.970Z,103995.69
2023-01-23T19:59:01.200Z,103997.50
2023-01-23T20:01:36.077Z,103996.88
2023-01-23T20:04:05.281Z,104005.94
2023-01-23T20:06:34.502Z,104003.25
2023-01-23T20:09:03.832Z,104004.09
2023-01-23T20:11:31.966Z,104006.66
2023-01-23T20:14:01.404Z,104005.78
2023-01-23T20:16:29.884Z,103995.97
2023-01-23T20:18:58.063Z,104002.19
2023-01-23T20:21:27.191Z,104009.44
2023-01-23T20:23:55.364Z,103998.66
2023-01-23T20:26:24.829Z,103997.78
2023-01-23T20:28:54.349Z,104003.25
2023-01-23T20:31:25.255Z,104014.00
2023-01-23T20:33:54.926Z,104003.16
2023-01-23T20:36:23.535Z,104005.72
2023-01-23T20:38:52.061Z,103998.41
2023-01-23T20:41:21.918Z,104009.97
2023-01-23T20:43:50.878Z,104015.88
2023-01-23T20:46:20.361Z,104011.34
2023-01-23T20:48:50.000Z,104013.09
2023-01-23T20:51:18.270Z,104009.50
2023-01-23T20:53:47.206Z,104003.16
2023-01-23T20:56:17.291Z,104012.97
2023-01-23T20:59:04.661Z,103999.34
2023-01-23T21:01:54.723Z,103993.91
2023-01-23T21:04:27.021Z,103997.59
2023-01-23T21:06:55.574Z,103993.91
2023-01-23T21:09:24.579Z,104003.78
2023-01-23T21:11:53.996Z,104005.84
2023-01-23T21:14:23.765Z,103998.50
2023-01-23T21:16:51.925Z,104004.75
2023-01-23T21:19:24.102Z,104008.31
2023-01-23T21:21:52.510Z,104007.81
2023-01-23T21:24:22.001Z,104007.56
2023-01-23T21:26:51.103Z,104008.56
2023-01-23T21:29:19.640Z,104014.59
2023-01-23T21:31:47.810Z,104019.91
2023-01-23T21:34:15.919Z,104015.59
2023-01-23T21:36:45.397Z,104014.78
2023-01-23T21:39:15.508Z,104027.28
2023-01-23T21:41:43.651Z,104028.03
2023-01-23T21:44:12.824Z,104021.72
2023-01-23T21:46:41.121Z,104019.91
2023-01-23T21:49:09.462Z,104035.28
2023-01-23T21:51:37.843Z,104027.88
2023-01-23T21:54:07.463Z,104035.44
2023-01-23T21:56:35.550Z,104039.00
2023-01-23T21:59:03.837Z,104036.41
2023-01-23T22:01:36.074Z,104049.84
2023-01-23T22:04:06.863Z,104039.00
2023-01-23T22:06:36.598Z,104035.28
2023-01-23T22:09:08.461Z,104048.13
2023-01-23T22:11:37.300Z,104055.25
2023-01-23T22:14:05.705Z,104055.13
2023-01-23T22:16:48.116Z,104057.75
2023-01-23T22:19:19.187Z,104052.53
2023-01-23T22:21:47.359Z,104061.63
2023-01-23T22:24:16.820Z,104065.22
2023-01-23T22:26:45.244Z,104058.81
2023-01-23T22:29:13.899Z,104055.19
2023-01-23T22:31:42.583Z,104053.34
2023-01-23T22:34:10.860Z,104048.88
2023-01-23T22:36:38.972Z,104049.84
2023-01-23T22:39:07.190Z,104048.19
2023-01-23T22:41:36.637Z,104043.72
2023-01-23T22:44:05.356Z,104049.09
2023-01-23T22:46:33.338Z,104044.47
2023-01-23T22:49:01.487Z,104047.25
2023-01-23T22:51:30.013Z,104046.44
2023-01-23T22:53:59.285Z,104056.38
2023-01-23T22:56:28.351Z,104051.97
2023-01-23T22:58:57.741Z,104054.69
2023-01-23T23:01:27.249Z,104050.16
2023-01-23T23:03:57.134Z,104042.81
2023-01-23T23:06:25.694Z,104043.78
2023-01-23T23:08:53.584Z,104040.19
2023-01-23T23:11:23.685Z,104041.19
2023-01-23T23:13:52.216Z,104043.03
2023-01-23T23:16:23.123Z,104050.19
2023-01-23T23:18:53.139Z,104042.06
2023-01-23T23:21:23.617Z,104036.66
2023-01-23T23:23:52.186Z,104039.31
2023-01-23T23:26:20.854Z,104041.00
2023-01-23T23:28:49.317Z,104038.44
2023-01-23T23:31:17.389Z,104037.75
2023-01-23T23:33:46.857Z,104039.72
2023-01-23T23:36:16.890Z,104040.19
2023-01-23T23:38:46.028Z,104039.19
2023-01-23T23:41:16.188Z,104034.97
2023-01-23T23:43:45.012Z,104027.59
2023-01-23T23:46:14.477Z,104031.31
2023-01-23T23:48:43.707Z,104030.31
2023-01-23T23:51:15.433Z,104029.63
2023-01-23T23:53:43.669Z,104032.25
2023-01-23T23:56:19.666Z,104031.44
2023-01-23T23:58:47.669Z,104027.00
